Algonquin Park, Canada
Current Conditions -  °F | °C
As of 12:00 PM on Tuesday 27 Jan 2015 (Local Time) from CYQA Reporting Station
Clear Clear  
Wind Chill:   Ceiling: Unl
Heat Index: 14°   Visibility: 9mi
Dew Point: -8°   Wind: 6mph
Humidity: 38%   Direction: 360°N
Pressure: 30.08"   Gusts: NA
Location:  45.56°N, 78.59°W
Report Text: CYQA 271700Z AUTO 36005KT 320V110 9SM CLR M10/M22 A3008 RMK SLP208
Loading
Personal Weather Stations






























Interactive Weather Map New forecast layout! Learn more

10-Day Weather Forecast

Advertisements
Track Severe Weather on mobile